Pagrindinis puslapis
METAR-TAF:

METAR-TAF

Oro uostai :

Båtsfjord, Norvegija

platuma: 70-38N, ilguma: 029-44E, Aukštis: 10 m

Dabartinis oras

Ataskaita buvo paskelbta 7 valandos ir 42 minutes, ne 18:50 UTC
Vėjas 20 kt iš Pietų/Pietvakarių
Temperatūra -4°C
Drėgmė 80%
Slėgis 1018 hPa
Matomumas 10 km arba daugiau
nėra debesų žemiau 1500 m ir nėra kamuolinių lietaus debesų

METAR: ENBS 281850Z 20020KT CAVOK M04/M07 Q1018

Laikas: 03:32 (02:32 UTC)


TAF: trūkstamas

Orai ataskaitas ir orų prognozės (METAR, TAF).

turimą stotys yra geltonos ir raudonos taškus žemėlapyje.

Perkelti pele per norėdami pamatyti stoties vardą.

Tada spustelėkite, norėdami matyti oro stebėjimo ir prognozės.

Norėdami pakeisti žemėlapį: spustelėkite ant žalios mygtukų su juodo kryžiaus žemyn,; žalią mygtuką su brūkšneliu, jei norite nutolinti; arba žalių rodyklių gretimoms žemėlapius.


METAR-TAF: